Time;durP1;ratioP1;P1;durP2;ratioP2;P2;SDS_P1;SDS_P2;PMS_P1;PMS_P2;Temp;Humidity;BMP_temperature;BMP_pressure;BME280_temperature;BME280_humidity;BME280_pressure;Samples;Min_cycle;Max_cycle;Signal;HPM_P1;HPM_P2
2022/09/13 00:00:26;;;;;;;16.83;11.85;;;17.40;99.90;;;;;;4793601;29;20054;-78
2022/09/13 00:02:52;;;;;;;18.10;12.85;;;17.40;99.90;;;;;;4809852;29;20054;-78
2022/09/13 00:05:18;;;;;;;20.63;12.55;;;17.40;99.90;;;;;;4793762;29;20055;-79
2022/09/13 00:07:43;;;;;;;18.05;12.07;;;17.40;99.90;;;;;;4793537;29;20058;-79
2022/09/13 00:10:09;;;;;;;17.73;12.93;;;17.40;99.90;;;;;;4809845;29;20476;-78
2022/09/13 00:12:34;;;;;;;16.52;12.48;;;17.40;99.90;;;;;;4793577;29;20055;-78
2022/09/13 00:15:00;;;;;;;19.25;12.80;;;17.30;99.90;;;;;;4793785;29;20061;-77
2022/09/13 00:17:26;;;;;;;17.65;11.75;;;17.40;99.90;;;;;;4809960;29;20046;-78
2022/09/13 00:19:51;;;;;;;15.00;11.35;;;17.40;99.90;;;;;;4793325;29;20448;-78
2022/09/13 00:22:17;;;;;;;16.45;11.27;;;17.40;99.90;;;;;;4793608;29;20640;-78
2022/09/13 00:24:43;;;;;;;16.65;11.88;;;17.40;99.90;;;;;;4793614;29;20419;-77
2022/09/13 00:27:09;;;;;;;16.00;10.82;;;17.40;99.90;;;;;;4793536;29;20090;-78
2022/09/13 00:29:35;;;;;;;13.75;10.65;;;17.40;99.90;;;;;;4809495;29;20065;-78
2022/09/13 00:32:01;;;;;;;13.88;10.20;;;17.40;99.90;;;;;;4793071;29;20043;-78
2022/09/13 00:34:27;;;;;;;13.40;9.73;;;17.40;99.90;;;;;;4793042;29;20146;-78
2022/09/13 00:36:52;;;;;;;13.98;9.52;;;17.40;99.90;;;;;;4809416;29;20403;-78
2022/09/13 00:39:18;;;;;;;12.20;9.70;;;17.40;99.90;;;;;;4793393;29;20455;-79
2022/09/13 00:41:44;;;;;;;12.00;9.70;;;17.40;99.90;;;;;;4793079;29;20046;-79
2022/09/13 00:44:47;;;;;;;12.70;9.30;;;17.40;99.90;;;;;;4809063;29;20553;-79
2022/09/13 00:47:18;;;;;;;14.10;9.52;;;17.40;99.90;;;;;;4809126;29;20058;-79
2022/09/13 00:49:45;;;;;;;11.93;8.98;;;17.30;99.90;;;;;;4793148;29;20066;-78
2022/09/13 00:52:15;;;;;;;13.25;9.60;;;17.40;99.90;;;;;;4792945;29;20054;-78
2022/09/13 00:55:01;;;;;;;12.90;9.45;;;17.40;99.90;;;;;;4809038;29;20051;-78
2022/09/13 00:57:30;;;;;;;14.48;10.13;;;17.40;99.90;;;;;;4792797;29;20050;-78
2022/09/13 01:00:11;;;;;;;16.80;10.10;;;17.30;99.90;;;;;;4792754;29;20574;-78
2022/09/13 01:02:46;;;;;;;15.98;11.05;;;17.30;99.90;;;;;;4792481;29;20104;-78
2022/09/13 01:05:14;;;;;;;15.98;11.15;;;17.30;99.90;;;;;;4792645;29;20058;-77
2022/09/13 01:07:43;;;;;;;16.80;11.20;;;17.30;99.90;;;;;;4791687;29;20055;-79
2022/09/13 01:10:09;;;;;;;17.88;12.52;;;17.30;99.90;;;;;;4808919;29;20051;-78
2022/09/13 01:12:43;;;;;;;18.17;13.05;;;17.30;99.90;;;;;;4792517;29;20051;-79
2022/09/13 01:15:09;;;;;;;17.42;12.52;;;17.30;99.90;;;;;;4792748;29;20108;-79
2022/09/13 01:17:35;;;;;;;17.08;12.30;;;17.30;99.90;;;;;;4792262;29;20122;-78
2022/09/13 01:20:03;;;;;;;18.65;12.63;;;17.40;99.90;;;;;;4792248;29;20396;-79
2022/09/13 01:22:41;;;;;;;17.17;13.05;;;17.30;99.90;;;;;;4792280;29;20469;-78
2022/09/13 01:25:10;;;;;;;17.95;13.18;;;17.30;99.90;;;;;;4792660;29;20094;-79
2022/09/13 01:27:55;;;;;;;22.25;14.13;;;17.40;99.90;;;;;;4792207;29;20512;-79
2022/09/13 01:30:34;;;;;;;19.42;13.13;;;17.30;99.90;;;;;;4782965;29;20147;-79
2022/09/13 01:33:31;;;;;;;23.52;14.13;;;17.40;99.90;;;;;;4792210;29;20055;-78
2022/09/13 01:36:32;;;;;;;21.52;14.02;;;17.40;99.90;;;;;;4808442;29;20065;-78
2022/09/13 01:39:06;;;;;;;21.10;13.63;;;17.40;99.90;;;;;;4792171;29;20448;-78
2022/09/13 01:42:01;;;;;;;23.02;14.95;;;17.40;99.90;;;;;;4792017;29;20059;-79
2022/09/13 01:44:55;;;;;;;20.98;14.15;;;17.40;99.90;;;;;;4808134;29;20126;-79
2022/09/13 01:47:42;;;;;;;20.92;14.15;;;17.40;99.90;;;;;;4808146;29;20054;-78
2022/09/13 01:50:26;;;;;;;18.38;13.63;;;17.40;99.90;;;;;;4792108;29;20130;-79
2022/09/13 01:52:56;;;;;;;9.80;3.63;;;17.50;99.90;;;;;;4792129;29;20523;-78
2022/09/13 01:55:35;;;;;;;6.28;1.23;;;17.40;99.90;;;;;;4791861;29;20495;-78
2022/09/13 01:58:28;;;;;;;5.25;1.75;;;17.50;99.90;;;;;;4791987;29;20059;-78
2022/09/13 02:01:09;;;;;;;6.15;0.77;;;17.40;99.90;;;;;;4782133;29;20105;-79
2022/09/13 02:03:47;;;;;;;8.10;1.25;;;17.50;99.90;;;;;;4791527;29;20086;-79
2022/09/13 02:06:29;;;;;;;9.30;1.02;;;17.50;99.90;;;;;;4791617;29;20081;-79
2022/09/13 02:09:00;;;;;;;10.35;0.80;;;17.50;99.90;;;;;;4808023;29;20055;-79
2022/09/13 02:11:26;;;;;;;4.40;0.70;;;17.50;99.90;;;;;;4791540;29;20180;-79
2022/09/13 02:14:10;;;;;;;5.30;0.82;;;17.50;99.90;;;;;;4808030;29;20122;-79
2022/09/13 02:16:44;;;;;;;6.55;0.50;;;17.50;99.90;;;;;;4807485;29;20567;-79
2022/09/13 02:19:25;;;;;;;6.28;0.50;;;17.50;99.90;;;;;;4791013;29;20043;-79
2022/09/13 02:21:58;;;;;;;6.97;0.80;;;17.50;99.90;;;;;;4791347;29;20051;-79
2022/09/13 02:24:29;;;;;;;;;;;17.50;99.90;;;;;;4791862;29;20050;-79
2022/09/13 02:26:58;;;;;;;6.57;0.88;;;17.50;99.90;;;;;;4791145;29;19925;-79
2022/09/13 02:29:27;;;;;;;5.95;0.88;;;17.40;99.90;;;;;;4791062;29;20078;-79
2022/09/13 02:32:08;;;;;;;4.90;0.70;;;17.50;99.90;;;;;;4790996;29;20062;-79
2022/09/13 02:34:50;;;;;;;7.15;0.75;;;17.50;99.90;;;;;;4790826;29;20062;-79
2022/09/13 02:37:16;;;;;;;4.10;0.85;;;17.50;99.90;;;;;;4791207;29;20130;-78
2022/09/13 02:39:56;;;;;;;5.15;0.80;;;17.50;99.90;;;;;;4807286;29;20130;-79
2022/09/13 02:42:43;;;;;;;6.10;0.65;;;17.50;99.90;;;;;;4791272;29;20051;-79
2022/09/13 02:45:12;;;;;;;8.07;0.90;;;17.60;99.90;;;;;;4791106;29;20054;-79
2022/09/13 02:47:44;;;;;;;1.90;0.75;;;17.50;99.90;;;;;;4790829;29;20058;-79
2022/09/13 02:50:27;;;;;;;5.28;0.73;;;17.50;99.90;;;;;;4790982;29;20059;-79
2022/09/13 02:53:08;;;;;;;;;;;17.50;99.90;;;;;;4791344;29;20547;-78
2022/09/13 02:55:51;;;;;;;4.22;0.82;;;17.50;99.90;;;;;;4790897;29;19968;-79
2022/09/13 02:58:34;;;;;;;4.55;1.00;;;17.50;99.90;;;;;;4791022;29;20062;-79
2022/09/13 03:01:00;;;;;;;4.15;0.55;;;17.50;99.90;;;;;;4791033;29;20111;-79
2022/09/13 03:03:25;;;;;;;3.92;0.63;;;17.60;99.90;;;;;;4790716;29;20516;-79
2022/09/13 03:05:52;;;;;;;2.42;0.50;;;17.50;99.90;;;;;;4790633;29;20495;-79
2022/09/13 03:08:19;;;;;;;4.57;0.80;;;17.50;99.90;;;;;;4790537;29;20445;-79
2022/09/13 03:10:56;;;;;;;4.63;1.13;;;17.50;99.90;;;;;;4790680;29;20055;-79
2022/09/13 03:13:31;;;;;;;7.00;0.77;;;17.50;99.90;;;;;;4806843;29;20051;-79
2022/09/13 03:16:16;;;;;;;3.10;0.55;;;17.60;99.90;;;;;;4790533;29;20043;-78
2022/09/13 03:18:59;;;;;;;2.33;0.57;;;17.50;99.90;;;;;;4790941;29;20055;-79
2022/09/13 03:21:44;;;;;;;3.88;0.70;;;17.50;99.90;;;;;;4790577;29;20510;-79
2022/09/13 03:24:23;;;;;;;7.88;0.90;;;17.50;99.90;;;;;;4790744;29;20047;-78
2022/09/13 03:27:20;;;;;;;2.55;0.70;;;17.40;99.90;;;;;;4806814;29;20051;-79
2022/09/13 03:30:21;;;;;;;4.18;0.70;;;17.50;99.90;;;;;;4807142;29;20536;-78
2022/09/13 03:33:05;;;;;;;5.30;0.70;;;17.40;99.90;;;;;;4767612;29;20054;-78
2022/09/13 03:35:51;;;;;;;3.83;0.73;;;17.50;99.90;;;;;;4790109;29;20063;-79
2022/09/13 03:38:38;;;;;;;2.85;0.50;;;17.50;99.90;;;;;;4806563;29;20067;-79
2022/09/13 03:41:26;;;;;;;4.47;0.90;;;17.50;99.90;;;;;;4790532;29;20065;-79
2022/09/13 03:44:08;;;;;;;2.50;0.70;;;17.40;99.90;;;;;;4790137;29;20047;-78
2022/09/13 03:46:39;;;;;;;3.85;0.68;;;17.40;99.90;;;;;;4806420;29;20061;-79
2022/09/13 03:49:14;;;;;;;6.15;1.15;;;17.40;99.90;;;;;;4806359;29;20090;-78
2022/09/13 03:51:41;;;;;;;4.30;0.95;;;17.40;99.90;;;;;;4789900;29;20059;-78
2022/09/13 03:54:15;;;;;;;5.45;0.70;;;17.40;99.90;;;;;;4790052;29;20056;-78
2022/09/13 03:56:41;;;;;;;3.80;0.80;;;17.40;99.90;;;;;;4790062;29;20086;-79
2022/09/13 03:59:06;;;;;;;3.90;0.63;;;17.30;99.90;;;;;;4790055;29;20082;-78
2022/09/13 04:01:32;;;;;;;3.78;0.60;;;17.30;99.90;;;;;;4790398;29;20054;-78
2022/09/13 04:03:58;;;;;;;6.93;0.70;;;17.30;99.90;;;;;;4806290;29;20519;-78
2022/09/13 04:06:24;;;;;;;4.63;0.85;;;17.20;99.90;;;;;;4790014;29;20084;-78
2022/09/13 04:08:49;;;;;;;3.15;0.70;;;17.20;99.90;;;;;;4789948;29;20051;-78
2022/09/13 04:11:15;;;;;;;6.43;0.70;;;17.20;99.90;;;;;;4789930;29;20522;-78
2022/09/13 04:13:41;;;;;;;2.97;0.80;;;17.30;99.90;;;;;;4790047;29;20124;-78
2022/09/13 04:16:07;;;;;;;4.57;0.60;;;17.20;99.90;;;;;;4806234;29;20042;-78
2022/09/13 04:18:34;;;;;;;7.18;1.02;;;17.30;99.90;;;;;;4806070;29;20130;-79
2022/09/13 04:21:01;;;;;;;8.15;1.48;;;17.30;99.90;;;;;;4789823;29;20438;-79
2022/09/13 04:23:28;;;;;;;6.78;1.27;;;17.40;99.90;;;;;;4789817;29;20058;-79
2022/09/13 04:25:55;;;;;;;7.07;1.27;;;17.40;99.90;;;;;;4790290;29;20061;-79
2022/09/13 04:28:21;;;;;;;9.52;1.42;;;17.40;99.90;;;;;;4805960;29;20055;-79
2022/09/13 04:30:48;;;;;;;5.78;1.48;;;17.40;99.90;;;;;;4790227;29;20066;-79
2022/09/13 04:33:14;;;;;;;8.13;1.40;;;17.50;99.90;;;;;;4789906;29;20129;-79
2022/09/13 04:35:40;;;;;;;6.38;1.35;;;17.40;99.90;;;;;;4789454;29;20059;-79
2022/09/13 04:38:06;;;;;;;12.07;1.63;;;17.40;99.90;;;;;;4789824;29;20104;-79
2022/09/13 04:40:33;;;;;;;9.98;1.52;;;17.40;99.90;;;;;;4789998;29;20051;-78
2022/09/13 04:43:02;;;;;;;6.07;1.27;;;17.40;99.90;;;;;;4791527;29;20069;-79
2022/09/13 04:45:28;;;;;;;8.20;1.35;;;17.30;99.90;;;;;;4793345;29;20052;-79
2022/09/13 04:47:55;;;;;;;6.03;1.25;;;17.30;99.90;;;;;;4809121;29;20050;-78
2022/09/13 04:50:22;;;;;;;6.95;1.30;;;17.30;99.90;;;;;;4809054;29;20054;-78
2022/09/13 04:52:48;;;;;;;4.70;1.13;;;17.30;99.90;;;;;;4809245;29;20043;-78
2022/09/13 04:55:15;;;;;;;7.15;1.13;;;17.20;99.90;;;;;;4792830;29;20043;-79
2022/09/13 04:57:41;;;;;;;9.10;1.10;;;17.20;99.90;;;;;;4793084;29;20054;-79
2022/09/13 05:00:07;;;;;;;7.57;1.63;;;17.30;99.90;;;;;;4809038;29;20058;-78
2022/09/13 05:02:33;;;;;;;8.48;1.35;;;17.20;99.90;;;;;;4792822;29;20055;-78
2022/09/13 05:04:59;;;;;;;6.50;1.02;;;17.30;99.90;;;;;;4808951;29;20039;-78
2022/09/13 05:07:24;;;;;;;5.95;1.23;;;17.40;99.90;;;;;;4792485;29;20055;-78
2022/09/13 05:09:50;;;;;;;2.33;1.00;;;17.30;99.90;;;;;;4792445;29;20050;-78
2022/09/13 05:12:16;;;;;;;8.07;0.90;;;17.30;99.90;;;;;;4792416;29;20050;-78
2022/09/13 05:14:41;;;;;;;5.47;0.80;;;17.20;99.90;;;;;;4792299;29;20051;-78
2022/09/13 05:17:07;;;;;;;5.90;1.08;;;17.20;99.90;;;;;;4808068;29;20067;-78
2022/09/13 05:19:33;;;;;;;3.83;0.80;;;17.20;99.90;;;;;;4807979;29;20457;-78
2022/09/13 05:21:59;;;;;;;5.10;1.00;;;17.20;99.90;;;;;;4792169;29;20054;-78
2022/09/13 05:24:25;;;;;;;4.47;1.10;;;17.10;99.90;;;;;;4792296;29;20075;-79
2022/09/13 05:26:51;;;;;;;3.50;0.80;;;17.20;99.90;;;;;;4792201;29;20051;-78
2022/09/13 05:29:16;;;;;;;3.13;0.90;;;17.20;99.90;;;;;;4792117;29;20517;-78
2022/09/13 05:31:42;;;;;;;4.32;0.93;;;17.20;99.90;;;;;;4792002;29;20057;-77
2022/09/13 05:34:14;;;;;;;4.38;1.13;;;17.10;99.90;;;;;;4808079;29;20124;-79
2022/09/13 05:36:40;;;;;;;4.80;1.20;;;17.10;99.90;;;;;;4791878;29;20103;-78
2022/09/13 05:39:10;;;;;;;5.70;1.30;;;17.10;99.90;;;;;;4808417;29;20074;-77
2022/09/13 05:41:36;;;;;;;5.93;0.80;;;17.10;99.90;;;;;;4792218;29;20096;-78
2022/09/13 05:44:05;;;;;;;3.17;0.75;;;17.00;99.90;;;;;;4808032;29;20472;-77
2022/09/13 05:46:31;;;;;;;4.88;0.80;;;17.00;99.90;;;;;;4792013;29;20051;-78
2022/09/13 05:48:58;;;;;;;6.20;1.02;;;17.00;99.90;;;;;;4791710;29;20057;-78
2022/09/13 05:51:24;;;;;;;5.60;0.77;;;17.10;99.90;;;;;;4791836;29;20055;-78
2022/09/13 05:53:51;;;;;;;4.68;0.93;;;17.00;99.90;;;;;;4791148;29;20434;-78
2022/09/13 05:56:26;;;;;;;8.88;1.20;;;17.00;99.90;;;;;;4791797;29;20054;-77
2022/09/13 05:58:54;;;;;;;5.97;1.08;;;17.00;99.90;;;;;;4791775;29;20064;-78
2022/09/13 06:01:22;;;;;;;5.13;0.90;;;17.10;99.90;;;;;;4791730;29;20073;-78
2022/09/13 06:03:53;;;;;;;3.55;0.98;;;17.00;99.90;;;;;;4791489;29;20051;-78
2022/09/13 06:06:19;;;;;;;6.18;0.88;;;17.00;99.90;;;;;;4791717;29;20130;-77
2022/09/13 06:08:45;;;;;;;8.32;1.20;;;17.00;99.90;;;;;;4791407;29;20054;-78
2022/09/13 06:11:13;;;;;;;5.60;0.80;;;17.00;99.90;;;;;;4791293;29;20046;-78
2022/09/13 06:13:39;;;;;;;7.13;0.82;;;17.10;99.90;;;;;;4791232;29;20175;-78
2022/09/13 06:16:11;;;;;;;3.65;0.63;;;17.20;99.90;;;;;;4791295;29;20046;-78
2022/09/13 06:18:36;;;;;;;6.03;0.90;;;17.20;99.90;;;;;;4791616;29;20050;-78
2022/09/13 06:21:07;;;;;;;3.60;0.82;;;17.20;99.90;;;;;;4791543;29;20050;-78
2022/09/13 06:23:37;;;;;;;5.38;0.90;;;17.30;99.90;;;;;;4807355;29;20055;-79
2022/09/13 06:26:12;;;;;;;4.40;0.75;;;17.30;99.90;;;;;;4791411;29;20051;-78
2022/09/13 06:28:38;;;;;;;2.75;0.60;;;17.30;99.90;;;;;;4807507;29;20061;-78
2022/09/13 06:31:07;;;;;;;3.85;1.23;;;17.40;99.90;;;;;;4790989;29;20100;-78
2022/09/13 06:33:34;;;;;;;3.28;0.70;;;17.30;99.90;;;;;;4790916;29;20089;-78
2022/09/13 06:36:01;;;;;;;5.40;0.70;;;17.50;99.90;;;;;;4791074;29;20063;-79
2022/09/13 06:38:28;;;;;;;4.50;0.85;;;17.50;99.90;;;;;;4807379;29;20197;-78
2022/09/13 06:41:11;;;;;;;9.75;1.05;;;17.60;99.90;;;;;;4790810;29;20105;-78
2022/09/13 06:43:37;;;;;;;8.68;1.45;;;17.70;99.90;;;;;;4807349;29;20054;-78
2022/09/13 06:46:09;;;;;;;5.47;1.15;;;17.70;99.90;;;;;;4790662;29;20047;-78
2022/09/13 06:48:38;;;;;;;3.85;0.90;;;17.60;99.90;;;;;;4806947;29;20054;-79
2022/09/13 06:51:07;;;;;;;6.28;1.60;;;17.60;99.90;;;;;;4790934;29;20051;-78
2022/09/13 06:53:35;;;;;;;8.43;1.00;;;17.60;99.90;;;;;;4807063;29;20201;-81
2022/09/13 06:56:10;;;;;;;3.63;0.85;;;17.70;99.90;;;;;;4790610;29;20058;-79
2022/09/13 06:58:37;;;;;;;6.88;1.02;;;17.80;99.90;;;;;;4790593;29;20062;-79
2022/09/13 07:01:10;;;;;;;4.82;1.00;;;17.80;99.90;;;;;;4806733;29;20088;-80
2022/09/13 07:03:44;;;;;;;7.43;1.20;;;17.90;99.90;;;;;;4790558;29;20114;-79
2022/09/13 07:06:15;;;;;;;4.40;0.90;;;18.00;99.90;;;;;;4790762;29;20059;-80
2022/09/13 07:08:42;;;;;;;3.90;0.60;;;18.00;99.90;;;;;;4790373;29;20067;-79
2022/09/13 07:11:17;;;;;;;6.10;0.70;;;18.00;99.90;;;;;;4806859;29;20047;-80
2022/09/13 07:13:50;;;;;;;4.15;0.88;;;17.90;99.90;;;;;;4782812;29;20054;-79
2022/09/13 07:16:16;;;;;;;4.53;0.60;;;18.00;99.90;;;;;;4772599;30;20048;-79
2022/09/13 07:18:42;;;;;;;6.03;0.93;;;18.00;99.90;;;;;;4772136;30;20138;-78
2022/09/13 07:21:09;;;;;;;7.18;0.90;;;18.00;99.90;;;;;;4787084;30;20186;-79
2022/09/13 07:23:39;;;;;;;4.97;0.57;;;18.00;99.90;;;;;;4788289;30;20047;-79
2022/09/13 07:26:06;;;;;;;3.00;0.90;;;18.00;99.90;;;;;;4772109;30;20056;-79
2022/09/13 07:28:37;;;;;;;5.53;0.90;;;18.00;99.90;;;;;;4771948;30;20126;-79
2022/09/13 07:31:21;;;;;;;4.28;0.80;;;18.10;99.90;;;;;;4772322;30;20401;-79
2022/09/13 07:33:52;;;;;;;4.93;0.95;;;18.10;99.90;;;;;;4771945;30;20067;-80
2022/09/13 07:36:18;;;;;;;3.00;0.63;;;18.20;99.90;;;;;;4771964;30;20134;-80
2022/09/13 07:38:44;;;;;;;3.25;0.70;;;18.20;99.90;;;;;;4788285;30;20126;-80
2022/09/13 07:41:15;;;;;;;5.43;0.90;;;18.30;99.90;;;;;;4772035;30;20411;-79
2022/09/13 07:43:41;;;;;;;6.05;1.25;;;18.20;99.90;;;;;;4788024;30;20055;-79
2022/09/13 07:46:12;;;;;;;6.57;0.93;;;18.30;99.90;;;;;;4772412;30;20051;-80
2022/09/13 07:48:40;;;;;;;3.53;0.63;;;18.30;99.90;;;;;;4771914;30;20188;-80
2022/09/13 07:51:08;;;;;;;6.75;0.65;;;18.30;99.90;;;;;;4792784;29;20043;-79
2022/09/13 07:53:35;;;;;;;15.63;0.88;;;18.30;99.90;;;;;;4789687;29;20054;-80
2022/09/13 07:56:03;;;;;;;8.13;1.27;;;18.40;99.90;;;;;;4806017;29;20086;-80
2022/09/13 07:58:29;;;;;;;5.90;1.20;;;18.50;99.90;;;;;;4789723;29;20126;-80
2022/09/13 08:00:59;;;;;;;4.80;0.80;;;18.50;99.90;;;;;;4789717;29;20050;-80
2022/09/13 08:03:25;;;;;;;4.75;0.63;;;18.50;99.90;;;;;;4805655;29;20597;-80
2022/09/13 08:05:51;;;;;;;7.07;0.77;;;18.60;99.90;;;;;;4789657;29;20129;-80
2022/09/13 08:08:18;;;;;;;6.10;1.05;;;18.60;99.90;;;;;;4789358;29;20051;-80
2022/09/13 08:10:44;;;;;;;5.78;0.90;;;18.70;99.90;;;;;;4805334;29;20407;-79
2022/09/13 08:13:10;;;;;;;5.75;0.77;;;18.70;99.90;;;;;;4805437;29;20514;-80
2022/09/13 08:15:35;;;;;;;3.42;0.70;;;18.70;99.90;;;;;;4805507;29;20055;-79
2022/09/13 08:18:01;;;;;;;6.15;1.05;;;18.70;99.90;;;;;;4807186;29;20057;-80
2022/09/13 08:20:27;;;;;;;6.07;0.80;;;18.70;99.90;;;;;;4792903;29;20467;-79
2022/09/13 08:22:53;;;;;;;7.47;0.90;;;18.70;99.90;;;;;;4792861;29;20050;-79
2022/09/13 08:25:19;;;;;;;7.13;0.90;;;18.80;99.90;;;;;;4792658;29;20058;-80
2022/09/13 08:27:44;;;;;;;6.10;0.80;;;18.90;99.90;;;;;;4793061;29;20096;-80
2022/09/13 08:30:10;;;;;;;9.05;1.30;;;19.00;99.90;;;;;;4792658;29;20058;-80
2022/09/13 08:32:36;;;;;;;7.18;1.00;;;19.00;99.90;;;;;;4808998;29;20070;-79
2022/09/13 08:35:02;;;;;;;7.78;1.17;;;19.10;99.90;;;;;;4808643;29;20482;-79
2022/09/13 08:37:27;;;;;;;4.82;0.90;;;19.10;99.90;;;;;;4809321;29;20047;-79
2022/09/13 08:39:53;;;;;;;3.83;0.63;;;19.00;99.90;;;;;;4809027;29;20062;-79
2022/09/13 08:42:38;;;;;;;5.50;0.90;;;19.10;99.90;;;;;;4808955;29;20500;-79
2022/09/13 08:45:04;;;;;;;5.68;0.63;;;19.20;99.90;;;;;;4809245;29;20042;-80
2022/09/13 08:47:36;;;;;;;4.82;0.70;;;19.40;99.90;;;;;;4792455;29;20435;-79
2022/09/13 08:50:22;;;;;;;4.82;0.50;;;19.50;99.90;;;;;;4792543;29;20051;-80
2022/09/13 08:52:59;;;;;;;5.53;0.88;;;19.60;99.90;;;;;;4792650;29;20057;-79
2022/09/13 08:56:03;;;;;;;6.43;0.70;;;19.70;99.90;;;;;;4792707;29;20488;-79
2022/09/13 08:59:01;;;;;;;7.65;0.68;;;19.80;99.90;;;;;;4792111;29;20055;-79
2022/09/13 09:01:32;;;;;;;3.58;0.50;;;19.80;99.90;;;;;;4788950;29;20065;-79
2022/09/13 09:04:02;;;;;;;4.73;0.83;;;19.70;99.90;;;;;;4792534;29;20038;-80
2022/09/13 09:06:28;;;;;;;2.92;0.50;;;19.70;99.90;;;;;;4808795;29;20051;-80
2022/09/13 09:09:03;;;;;;;5.38;1.02;;;19.80;99.90;;;;;;4791555;29;20047;-80
2022/09/13 09:11:47;;;;;;;4.40;0.60;;;19.90;99.90;;;;;;4774499;30;20055;-80
2022/09/13 09:14:33;;;;;;;5.40;1.10;;;20.00;99.90;;;;;;4774579;30;20051;-80
2022/09/13 09:17:07;;;;;;;6.15;0.93;;;20.10;99.90;;;;;;4787190;29;20050;-81
2022/09/13 09:19:40;;;;;;;5.75;1.15;;;20.20;99.90;;;;;;4791973;29;20100;-80
2022/09/13 09:22:16;;;;;;;3.88;0.50;;;20.20;99.90;;;;;;4807850;29;20051;-80
2022/09/13 09:24:45;;;;;;;3.55;0.60;;;20.20;99.90;;;;;;4785221;29;20515;-80
2022/09/13 09:27:15;;;;;;;4.30;0.73;;;20.30;99.90;;;;;;4792157;29;20115;-80
2022/09/13 09:29:45;;;;;;;4.60;0.68;;;20.30;99.90;;;;;;4791136;29;20077;-80
2022/09/13 09:32:48;;;;;;;3.55;0.65;;;20.40;99.90;;;;;;4808071;29;20397;-79
2022/09/13 09:36:06;;;;;;;5.10;0.47;;;20.30;99.90;;;;;;4806012;29;20071;-80
2022/09/13 09:38:42;;;;;;;4.63;0.50;;;20.40;99.90;;;;;;4771014;29;20062;-80
2022/09/13 09:41:41;;;;;;;6.68;0.70;;;20.40;99.90;;;;;;4827405;23;20057;-88
2022/09/13 09:44:43;;;;;;;5.97;0.60;;;20.50;99.90;;;;;;4792381;29;20123;-90
2022/09/13 09:51:09;;;;;;;7.80;0.90;;;20.60;99.90;;;;;;4793624;29;20077;-91
2022/09/13 09:54:01;;;;;;;5.72;0.60;;;20.70;99.90;;;;;;4792100;29;20054;-88
2022/09/13 09:56:51;;;;;;;3.50;0.40;;;20.80;99.90;;;;;;4793084;29;20503;-87
2022/09/13 09:59:36;;;;;;;5.35;0.63;;;20.70;99.90;;;;;;4793847;29;20137;-89
2022/09/13 10:02:24;;;;;;;8.00;0.75;;;20.70;99.90;;;;;;4793851;29;20057;-89
2022/09/13 10:05:05;;;;;;;5.38;0.63;;;20.90;99.90;;;;;;4792911;29;20051;-91
2022/09/13 10:08:31;;;;;;;4.90;0.88;;;21.00;99.90;;;;;;4809086;29;20062;-89
2022/09/13 10:11:35;;;;;;;6.65;1.40;;;21.10;99.90;;;;;;4794655;29;20206;-88
2022/09/13 10:14:36;;;;;;;5.72;1.10;;;21.30;99.90;;;;;;4791404;29;20479;-81
2022/09/13 10:17:24;;;;;;;5.97;0.85;;;21.40;99.90;;;;;;4791319;29;20404;-80
2022/09/13 10:20:12;;;;;;;5.07;0.90;;;21.40;99.90;;;;;;4791242;29;20138;-80
2022/09/13 10:22:39;;;;;;;8.23;1.05;;;21.30;99.90;;;;;;4790588;29;20050;-79
2022/09/13 10:25:13;;;;;;;6.72;1.00;;;21.30;99.90;;;;;;4807108;29;20051;-81
2022/09/13 10:27:44;;;;;;;7.35;0.85;;;21.20;99.90;;;;;;4790854;29;20089;-80
2022/09/13 10:30:51;;;;;;;3.55;0.50;;;21.20;99.90;;;;;;4790778;29;20503;-80
2022/09/13 10:33:28;;;;;;;7.35;0.77;;;21.10;99.90;;;;;;4791113;29;20077;-79
2022/09/13 10:35:57;;;;;;;10.07;1.02;;;21.10;99.90;;;;;;4790984;29;20055;-79
2022/09/13 10:38:33;;;;;;;6.25;1.05;;;21.20;99.90;;;;;;4807180;29;20125;-80
2022/09/13 10:41:04;;;;;;;5.43;0.90;;;21.30;99.90;;;;;;4806942;29;20043;-79
2022/09/13 10:43:32;;;;;;;8.93;0.80;;;21.30;99.90;;;;;;4790540;29;20063;-79
2022/09/13 10:46:01;;;;;;;7.82;0.70;;;21.50;99.90;;;;;;4790111;29;20051;-79
2022/09/13 10:48:30;;;;;;;4.20;0.88;;;21.40;99.90;;;;;;4790654;29;20059;-78
2022/09/13 10:51:02;;;;;;;8.35;1.00;;;21.60;99.90;;;;;;4790688;29;20066;-80
2022/09/13 10:53:34;;;;;;;;;;;21.60;99.90;;;;;;4791266;29;20063;-80
2022/09/13 10:56:01;;;;;;;6.45;1.02;;;21.50;99.90;;;;;;4790439;29;19924;-80
2022/09/13 10:58:27;;;;;;;7.22;1.20;;;21.70;99.90;;;;;;4790525;29;20456;-81
2022/09/13 11:01:16;;;;;;;6.20;0.88;;;22.00;99.90;;;;;;4796356;29;20054;-80
2022/09/13 11:03:58;;;;;;;4.35;0.80;;;22.10;99.90;;;;;;4825139;29;20061;-80
2022/09/13 11:06:41;;;;;;;7.50;1.23;;;22.20;99.90;;;;;;4808407;29;20059;-81
2022/09/13 11:09:18;;;;;;;8.18;1.08;;;22.30;99.90;;;;;;4824986;29;20066;-81
2022/09/13 11:12:12;;;;;;;6.90;1.42;;;22.30;99.90;;;;;;4808451;29;20058;-80
2022/09/13 11:15:00;;;;;;;6.00;0.90;;;22.50;99.90;;;;;;4808205;29;20085;-80
2022/09/13 11:17:44;;;;;;;5.53;0.80;;;22.40;99.90;;;;;;4797828;29;20057;-81
2022/09/13 11:20:17;;;;;;;8.80;1.00;;;22.50;99.90;;;;;;4824902;29;20065;-83
2022/09/13 11:22:57;;;;;;;5.40;1.30;;;22.30;99.90;;;;;;4808524;29;20054;-82
2022/09/13 11:25:54;;;;;;;7.13;1.00;;;22.30;99.90;;;;;;4808421;29;20050;-81
2022/09/13 11:28:40;;;;;;;4.68;0.60;;;22.20;99.90;;;;;;4807954;29;20089;-82
2022/09/13 11:31:33;;;;;;;9.38;1.10;;;22.30;99.90;;;;;;4808095;29;20065;-82
2022/09/13 11:34:05;;;;;;;4.78;0.68;;;22.30;99.90;;;;;;4808023;29;20058;-80
2022/09/13 11:36:43;;;;;;;9.00;1.77;;;22.30;99.90;;;;;;4808283;29;20499;-81
2022/09/13 11:39:15;;;;;;;7.25;1.20;;;22.30;99.90;;;;;;4808679;29;20054;-82
2022/09/13 11:42:07;;;;;;;6.65;0.82;;;22.30;99.90;;;;;;4824337;29;20134;-80
2022/09/13 11:44:47;;;;;;;9.00;0.90;;;22.30;99.90;;;;;;4824645;29;20054;-80
2022/09/13 11:47:28;;;;;;;9.68;1.20;;;22.40;99.90;;;;;;4808226;29;20339;-80
2022/09/13 11:50:20;;;;;;;7.07;1.00;;;22.50;99.90;;;;;;4808086;29;20054;-80
2022/09/13 11:52:58;;;;;;;6.67;0.83;;;22.40;99.90;;;;;;4809590;29;20072;-81
2022/09/13 11:55:32;;;;;;;7.15;0.93;;;22.40;99.90;;;;;;4811812;29;20521;-81
2022/09/13 11:58:03;;;;;;;5.53;0.82;;;22.40;99.90;;;;;;4811822;29;20058;-81
2022/09/13 12:00:44;;;;;;;5.10;0.70;;;22.30;99.90;;;;;;4828175;29;20075;-81
2022/09/13 12:03:09;;;;;;;4.80;0.60;;;22.40;99.90;;;;;;4811660;29;20134;-82
2022/09/13 12:05:53;;;;;;;3.30;0.50;;;22.50;99.90;;;;;;4811402;29;20095;-81
2022/09/13 12:08:31;;;;;;;5.00;0.70;;;22.40;99.90;;;;;;4811540;29;20054;-82
2022/09/13 12:11:02;;;;;;;7.80;0.70;;;22.60;99.90;;;;;;4811350;29;20141;-81
2022/09/13 12:13:40;;;;;;;5.03;0.98;;;22.40;99.90;;;;;;4811537;29;20057;-80
2022/09/13 12:16:15;;;;;;;8.65;1.38;;;22.40;99.90;;;;;;4811769;29;20091;-80
2022/09/13 12:18:48;;;;;;;6.88;0.70;;;22.30;99.90;;;;;;4827533;29;20053;-82
2022/09/13 12:21:18;;;;;;;6.75;0.70;;;22.30;99.90;;;;;;4811138;29;20482;-80
2022/09/13 12:24:05;;;;;;;6.78;1.35;;;22.40;99.90;;;;;;4827314;29;20061;-83
2022/09/13 12:26:44;;;;;;;5.20;0.73;;;22.40;99.90;;;;;;4811342;29;20133;-82
2022/09/13 12:29:15;;;;;;;5.38;0.80;;;22.30;99.90;;;;;;4810890;29;20053;-80
2022/09/13 12:31:41;;;;;;;5.55;0.70;;;22.30;99.90;;;;;;4811204;29;20130;-81
2022/09/13 12:34:21;;;;;;;6.78;0.80;;;22.30;99.90;;;;;;4810982;29;20487;-80
2022/09/13 12:36:49;;;;;;;6.45;1.02;;;22.30;99.90;;;;;;4810843;29;20046;-80
2022/09/13 12:39:24;;;;;;;7.85;1.20;;;22.20;99.90;;;;;;4827258;29;20146;-81
2022/09/13 12:42:08;;;;;;;8.25;0.75;;;22.20;99.90;;;;;;4827145;29;20077;-81
2022/09/13 12:44:49;;;;;;;7.07;0.65;;;22.10;99.90;;;;;;4811038;29;20414;-82
2022/09/13 12:47:41;;;;;;;7.70;1.33;;;22.00;99.90;;;;;;4810824;29;20061;-82
2022/09/13 12:50:39;;;;;;;7.07;0.80;;;22.10;99.90;;;;;;4810670;29;20498;-82
2022/09/13 12:53:36;;;;;;;8.23;1.33;;;22.00;99.90;;;;;;4826928;29;20407;-84
2022/09/13 12:56:23;;;;;;;6.35;1.05;;;22.10;99.90;;;;;;4810887;29;20054;-82
2022/09/13 12:59:17;;;;;;;5.15;0.70;;;22.10;99.90;;;;;;4810850;29;20062;-82
2022/09/13 13:01:48;;;;;;;5.55;0.80;;;21.90;99.90;;;;;;4810741;29;20050;-82
2022/09/13 13:04:27;;;;;;;4.53;0.60;;;21.90;99.90;;;;;;4826445;29;20065;-80
2022/09/13 13:07:05;;;;;;;8.23;1.10;;;21.80;99.90;;;;;;4810663;29;20311;-81
2022/09/13 13:09:42;;;;;;;5.15;0.60;;;21.80;99.90;;;;;;4810358;29;20046;-81
2022/09/13 13:12:31;;;;;;;6.60;0.82;;;21.80;99.90;;;;;;4826822;29;20050;-82
2022/09/13 13:15:00;;;;;;;6.40;1.13;;;21.70;99.90;;;;;;4810326;29;20062;-81
2022/09/13 13:17:37;;;;;;;7.18;0.70;;;21.60;99.90;;;;;;4810317;29;20053;-81
2022/09/13 13:20:41;;;;;;;5.97;0.90;;;21.50;99.90;;;;;;4810269;29;20051;-81
2022/09/13 13:23:25;;;;;;;6.82;0.60;;;21.50;99.90;;;;;;4810518;29;20514;-81
2022/09/13 13:26:07;;;;;;;5.82;0.80;;;21.60;99.90;;;;;;4826374;29;20558;-81